createdAt,value
2019-01-03T00:00:48.132Z,2.60
2019-01-03T00:03:42.188Z,2.50
2019-01-03T00:06:28.507Z,2.30
2019-01-03T00:09:19.417Z,2.20
2019-01-03T00:12:05.876Z,2.10
2019-01-03T00:14:52.246Z,1.90
2019-01-03T00:17:40.300Z,1.80
2019-01-03T00:20:27.103Z,1.70
2019-01-03T00:23:15.171Z,1.70
2019-01-03T00:26:12.372Z,1.60
2019-01-03T00:29:09.108Z,1.50
2019-01-03T00:31:57.165Z,1.50
2019-01-03T00:34:51.220Z,1.40
2019-01-03T00:37:51.256Z,1.40
2019-01-03T00:40:54.148Z,1.50
2019-01-03T00:43:41.624Z,1.60
2019-01-03T00:46:32.305Z,1.60
2019-01-03T00:49:20.353Z,1.50
2019-01-03T00:52:12.668Z,1.60
2019-01-03T00:55:16.265Z,1.50
2019-01-03T00:58:02.896Z,1.40
2019-01-03T01:00:46.969Z,1.40
2019-01-03T01:03:40.961Z,1.30
2019-01-03T01:06:42.592Z,1.20
2019-01-03T01:09:29.051Z,1.10
2019-01-03T01:12:15.712Z,0.90
2019-01-03T01:15:02.381Z,0.90
2019-01-03T01:18:00.120Z,0.80
2019-01-03T01:20:50.044Z,0.80
2019-01-03T01:23:38.031Z,0.80
2019-01-03T01:26:24.673Z,0.70
2019-01-03T01:29:09.972Z,0.10
2019-01-03T01:32:03.706Z,0.70
2019-01-03T01:34:50.404Z,0.70
2019-01-03T01:37:53.648Z,0.70
2019-01-03T01:40:56.661Z,0.60
2019-01-03T01:43:42.876Z,0.60
2019-01-03T01:46:30.924Z,0.60
2019-01-03T01:49:17.536Z,0.60
2019-01-03T01:52:20.641Z,0.60
2019-01-03T01:55:07.088Z,0.60
2019-01-03T01:57:53.476Z,0.70
2019-01-03T02:00:40.188Z,0.70
2019-01-03T02:03:22.599Z,0.80
2019-01-03T02:06:09.244Z,0.80
2019-01-03T02:09:09.190Z,0.80
2019-01-03T02:12:11.141Z,0.90
2019-01-03T02:15:01.997Z,0.90
2019-01-03T02:17:49.877Z,0.90
2019-01-03T02:20:56.013Z,0.90
2019-01-03T02:23:55.689Z,0.80
2019-01-03T02:26:39.252Z,0.90
2019-01-03T02:29:25.587Z,0.90
2019-01-03T02:32:19.657Z,0.80
2019-01-03T02:35:23.185Z,0.80
2019-01-03T02:38:15.192Z,0.80
2019-01-03T02:41:06.248Z,0.80
2019-01-03T02:43:53.505Z,0.80
2019-01-03T02:46:40.105Z,0.80
2019-01-03T02:49:30.985Z,0.80
2019-01-03T02:52:31.924Z,0.90
2019-01-03T02:55:23.031Z,0.80
2019-01-03T02:58:26.084Z,0.90
2019-01-03T03:01:08.244Z,0.90
2019-01-03T03:04:02.221Z,1.00
2019-01-03T03:06:44.196Z,1.00
2019-01-03T03:09:30.474Z,0.90
2019-01-03T03:12:17.108Z,1.00
2019-01-03T03:15:03.751Z,1.00
2019-01-03T03:17:49.044Z,1.00
2019-01-03T03:20:35.492Z,1.00
2019-01-03T03:23:24.785Z,1.10
2019-01-03T03:26:11.424Z,1.10
2019-01-03T03:29:05.430Z,1.10
2019-01-03T03:31:53.413Z,1.10
2019-01-03T03:34:47.120Z,1.10
2019-01-03T03:37:46.932Z,1.10
2019-01-03T03:40:34.981Z,1.10
2019-01-03T03:43:34.232Z,1.10
2019-01-03T03:46:20.403Z,1.10
2019-01-03T03:49:06.820Z,1.10
2019-01-03T03:51:53.151Z,1.10
2019-01-03T03:54:41.021Z,1.10
2019-01-03T03:57:27.465Z,1.10
2019-01-03T04:00:13.953Z,1.10
2019-01-03T04:03:13.976Z,1.10
2019-01-03T04:06:07.694Z,1.10
2019-01-03T04:08:58.681Z,1.10
2019-01-03T04:11:45.254Z,1.10
2019-01-03T04:14:31.904Z,1.10
2019-01-03T04:17:26.732Z,1.00
2019-01-03T04:20:13.226Z,1.00
2019-01-03T04:23:01.209Z,1.00
2019-01-03T04:26:04.419Z,1.00
2019-01-03T04:28:50.921Z,1.00
2019-01-03T04:31:44.745Z,0.90
2019-01-03T04:34:35.793Z,0.90
2019-01-03T04:37:24.016Z,0.90
2019-01-03T04:40:12.377Z,0.90
2019-01-03T04:42:54.637Z,1.00
2019-01-03T04:45:47.744Z,1.00
2019-01-03T04:48:33.082Z,1.00
2019-01-03T04:51:27.085Z,0.90
2019-01-03T04:54:24.141Z,0.90
2019-01-03T04:57:07.314Z,0.80
2019-01-03T05:00:02.176Z,0.80
2019-01-03T05:02:56.033Z,0.80
2019-01-03T05:05:46.207Z,0.90
2019-01-03T05:08:32.704Z,0.90
2019-01-03T05:11:20.752Z,1.00
2019-01-03T05:14:07.444Z,1.00
2019-01-03T05:17:07.680Z,1.00
2019-01-03T05:19:54.114Z,1.10
2019-01-03T05:22:42.030Z,1.10
2019-01-03T05:25:24.045Z,1.10
2019-01-03T05:28:10.946Z,1.10
2019-01-03T05:30:59.028Z,1.10
2019-01-03T05:33:45.358Z,1.10
2019-01-03T05:36:38.468Z,1.10
2019-01-03T05:39:41.257Z,1.10
2019-01-03T05:42:33.473Z,1.20
2019-01-03T05:45:20.150Z,1.20
2019-01-03T05:48:26.245Z,1.10
2019-01-03T05:51:17.208Z,1.20
2019-01-03T05:54:05.090Z,1.20
2019-01-03T05:56:46.849Z,1.20
2019-01-03T05:59:37.253Z,1.20
2019-01-03T06:02:34.184Z,1.20
2019-01-03T06:05:31.128Z,1.20
2019-01-03T06:08:17.380Z,1.10
2019-01-03T06:10:58.497Z,1.20
2019-01-03T06:13:50.777Z,1.30
2019-01-03T06:16:37.172Z,1.30
2019-01-03T06:19:37.336Z,1.30
2019-01-03T06:22:30.856Z,1.30
2019-01-03T06:25:30.634Z,1.30
2019-01-03T06:28:21.657Z,1.40
2019-01-03T06:31:21.564Z,1.40
2019-01-03T06:34:12.596Z,1.40
2019-01-03T06:37:13.609Z,1.40
2019-01-03T06:40:00.388Z,1.50
2019-01-03T06:42:40.424Z,1.40
2019-01-03T06:45:43.600Z,1.40
2019-01-03T06:48:30.119Z,1.40
2019-01-03T06:51:09.108Z,1.40
2019-01-03T06:53:54.012Z,1.40
2019-01-03T06:56:53.812Z,1.40
2019-01-03T06:59:44.724Z,1.50
2019-01-03T07:02:38.528Z,1.50
2019-01-03T07:05:25.004Z,1.50
2019-01-03T07:08:21.740Z,1.50
2019-01-03T07:11:00.432Z,1.50
2019-01-03T07:13:46.740Z,1.50
2019-01-03T07:16:43.789Z,1.40
2019-01-03T07:19:29.688Z,1.30
2019-01-03T07:22:16.308Z,1.30
2019-01-03T07:25:04.284Z,1.30
2019-01-03T07:27:50.741Z,1.30
2019-01-03T07:30:35.027Z,1.40
2019-01-03T07:33:21.831Z,1.40
2019-01-03T07:36:12.305Z,1.40
2019-01-03T07:39:06.101Z,1.40
2019-01-03T07:41:51.492Z,1.40
2019-01-03T07:44:46.793Z,1.40
2019-01-03T07:47:34.680Z,1.40
2019-01-03T07:50:21.659Z,1.40
2019-01-03T07:53:24.872Z,1.50
2019-01-03T07:56:07.164Z,1.50
2019-01-03T07:58:53.640Z,1.50
2019-01-03T08:01:53.802Z,1.50
2019-01-03T08:04:42.697Z,1.60
2019-01-03T08:07:45.988Z,1.50
2019-01-03T08:10:31.272Z,1.60
2019-01-03T08:13:25.045Z,1.70
2019-01-03T08:16:11.888Z,1.70
2019-01-03T08:18:58.540Z,1.60
2019-01-03T08:21:49.450Z,1.50
2019-01-03T08:24:36.143Z,1.50
2019-01-03T08:27:22.797Z,1.50
2019-01-03T08:30:22.981Z,1.60
2019-01-03T08:33:10.302Z,1.60
2019-01-03T08:35:57.052Z,1.70
2019-01-03T08:38:43.809Z,1.70
2019-01-03T08:41:37.184Z,1.60
2019-01-03T08:44:23.460Z,1.60
2019-01-03T08:47:10.063Z,1.60
2019-01-03T08:49:56.827Z,1.70
2019-01-03T08:52:56.871Z,1.70
2019-01-03T08:55:40.416Z,1.70
2019-01-03T08:58:37.498Z,1.70
2019-01-03T09:01:26.798Z,1.70
2019-01-03T09:04:29.849Z,1.60
2019-01-03T09:07:24.196Z,1.60
2019-01-03T09:10:06.288Z,1.50
2019-01-03T09:13:00.100Z,1.60
2019-01-03T09:15:50.945Z,1.50
2019-01-03T09:18:39.444Z,1.60
2019-01-03T09:21:26.292Z,1.70
2019-01-03T09:24:12.749Z,1.70
2019-01-03T09:27:18.908Z,1.70
2019-01-03T09:30:07.172Z,1.80
2019-01-03T09:32:54.000Z,1.70
2019-01-03T09:35:40.549Z,1.80
2019-01-03T09:38:27.932Z,1.90
2019-01-03T09:41:14.493Z,2.00
2019-01-03T09:44:02.228Z,2.00
2019-01-03T09:46:31.240Z,2.10
2019-01-03T09:49:00.108Z,2.20
2019-01-03T09:51:28.920Z,2.20
2019-01-03T09:53:57.963Z,2.30
2019-01-03T09:56:26.744Z,2.30
2019-01-03T09:58:56.111Z,2.30
2019-01-03T10:01:25.109Z,2.30
2019-01-03T10:03:53.944Z,2.30
2019-01-03T10:06:22.885Z,2.30
2019-01-03T10:08:52.978Z,2.40
2019-01-03T10:11:22.004Z,2.40
2019-01-03T10:13:50.997Z,2.50
2019-01-03T10:16:20.134Z,2.50
2019-01-03T10:18:49.092Z,2.50
2019-01-03T10:21:17.956Z,2.60
2019-01-03T10:23:46.888Z,2.50
2019-01-03T10:26:15.797Z,2.40
2019-01-03T10:28:44.781Z,2.30
2019-01-03T10:31:13.612Z,2.30
2019-01-03T10:33:42.979Z,2.30
2019-01-03T10:36:11.789Z,2.40
2019-01-03T10:38:47.685Z,2.40
2019-01-03T10:41:16.560Z,2.40
2019-01-03T10:43:45.452Z,2.50
2019-01-03T10:46:14.416Z,2.50
2019-01-03T10:48:44.145Z,2.50
2019-01-03T10:51:13.860Z,2.50
2019-01-03T10:53:42.652Z,2.50
2019-01-03T10:56:11.528Z,2.50
2019-01-03T10:58:40.383Z,2.60
2019-01-03T11:01:09.428Z,2.60
2019-01-03T11:03:38.324Z,2.70
2019-01-03T11:06:07.207Z,2.70
2019-01-03T11:08:36.096Z,2.70
2019-01-03T11:11:05.029Z,2.70
2019-01-03T11:13:33.920Z,2.80
2019-01-03T11:16:02.821Z,2.80
2019-01-03T11:18:31.677Z,2.80
2019-01-03T11:21:00.712Z,2.80
2019-01-03T11:23:29.976Z,2.90
2019-01-03T11:25:58.784Z,2.90
2019-01-03T11:28:27.736Z,3.00
2019-01-03T11:30:56.629Z,3.10
2019-01-03T11:33:25.533Z,3.20
2019-01-03T11:35:54.432Z,3.10
2019-01-03T11:38:23.228Z,3.00
2019-01-03T11:40:52.044Z,3.00
2019-01-03T11:43:20.955Z,3.00
2019-01-03T11:45:49.912Z,3.10
2019-01-03T11:48:18.724Z,3.10
2019-01-03T11:50:47.712Z,3.10
2019-01-03T11:53:16.701Z,3.10
2019-01-03T11:55:45.524Z,3.10
2019-01-03T11:58:14.540Z,3.10
2019-01-03T12:03:19.690Z,3.20
2019-01-03T12:05:56.655Z,3.30
2019-01-03T12:08:35.590Z,3.30
2019-01-03T12:16:29.410Z,3.40
2019-01-03T12:18:58.991Z,3.50
2019-01-03T12:21:28.158Z,3.50
2019-01-03T12:23:57.202Z,3.50
2019-01-03T12:26:26.232Z,3.50
2019-01-03T12:28:55.146Z,3.60
2019-01-03T12:31:24.196Z,3.50
2019-01-03T12:33:53.471Z,3.60
2019-01-03T12:36:22.434Z,3.60
2019-01-03T12:38:51.475Z,3.60
2019-01-03T12:41:25.108Z,3.60
2019-01-03T12:44:16.781Z,3.70
2019-01-03T12:46:53.164Z,3.70
2019-01-03T12:49:22.186Z,3.80
2019-01-03T12:51:51.207Z,3.80
2019-01-03T12:54:28.299Z,3.80
2019-01-03T12:56:57.304Z,3.80
2019-01-03T12:59:26.458Z,3.80
2019-01-03T13:01:55.543Z,3.90
2019-01-03T13:04:24.554Z,4.00
2019-01-03T13:06:53.615Z,4.00
2019-01-03T13:09:22.650Z,4.00
2019-01-03T13:11:51.736Z,4.00
2019-01-03T13:14:20.899Z,4.00
2019-01-03T13:16:50.001Z,4.00
2019-01-03T13:19:18.911Z,4.00
2019-01-03T13:21:47.964Z,4.00
2019-01-03T13:24:16.998Z,4.00
2019-01-03T13:26:47.857Z,4.10
2019-01-03T13:29:16.879Z,4.10
2019-01-03T13:31:54.313Z,4.10
2019-01-03T13:34:23.258Z,4.10
2019-01-03T13:36:52.375Z,4.10
2019-01-03T13:39:21.347Z,4.20
2019-01-03T13:41:50.380Z,4.30
2019-01-03T13:44:19.320Z,4.30
2019-01-03T13:46:48.415Z,4.40
2019-01-03T13:49:17.251Z,4.50
2019-01-03T13:51:46.170Z,4.50
2019-01-03T13:54:15.051Z,4.60
2019-01-03T13:56:44.063Z,4.70
2019-01-03T13:59:13.122Z,4.70
2019-01-03T14:01:42.166Z,4.70
2019-01-03T14:04:11.255Z,4.70
2019-01-03T14:06:40.344Z,4.80
2019-01-03T14:09:09.517Z,4.80
2019-01-03T14:11:38.696Z,4.80
2019-01-03T14:14:07.631Z,4.80
2019-01-03T14:16:36.739Z,4.90
2019-01-03T14:19:05.678Z,4.90
2019-01-03T14:21:34.638Z,4.90
2019-01-03T14:24:03.803Z,4.90
2019-01-03T14:26:33.240Z,5.00
2019-01-03T14:29:02.262Z,4.90
2019-01-03T14:31:31.345Z,4.90
2019-01-03T14:34:00.316Z,4.90
2019-01-03T14:36:29.384Z,5.00
2019-01-03T14:38:58.430Z,5.00
2019-01-03T14:41:27.378Z,5.00
2019-01-03T14:44:13.390Z,5.00
2019-01-03T14:46:42.327Z,5.00
2019-01-03T14:49:11.359Z,5.00
2019-01-03T14:51:40.295Z,5.00
2019-01-03T14:54:09.643Z,5.00
2019-01-03T14:56:38.677Z,5.10
2019-01-03T14:59:09.799Z,5.10
2019-01-03T15:01:38.808Z,5.10
2019-01-03T15:04:07.803Z,5.10
2019-01-03T15:06:36.898Z,5.10
2019-01-03T15:09:07.205Z,5.10
2019-01-03T15:11:36.162Z,5.10
2019-01-03T15:14:05.231Z,5.10
2019-01-03T15:16:34.295Z,5.10
2019-01-03T15:19:03.167Z,5.10
2019-01-03T15:21:32.171Z,5.20
2019-01-03T15:24:02.094Z,5.20
2019-01-03T15:26:31.151Z,5.20
2019-01-03T15:29:00.492Z,5.20
2019-01-03T15:31:29.511Z,5.20
2019-01-03T15:33:58.473Z,5.20
2019-01-03T15:36:27.562Z,5.20
2019-01-03T15:38:56.614Z,5.20
2019-01-03T15:41:25.670Z,5.20
2019-01-03T15:43:54.502Z,5.20
2019-01-03T15:46:23.508Z,5.20
2019-01-03T15:48:52.570Z,5.20
2019-01-03T15:51:21.645Z,5.20
2019-01-03T15:53:50.581Z,5.20
2019-01-03T15:56:19.581Z,5.20
2019-01-03T15:58:48.575Z,5.20
2019-01-03T16:01:17.779Z,5.10
2019-01-03T16:03:46.858Z,5.20
2019-01-03T16:06:15.985Z,5.20
2019-01-03T16:08:45.080Z,5.20
2019-01-03T16:11:14.446Z,5.20
2019-01-03T16:13:43.555Z,5.20
2019-01-03T16:16:12.658Z,5.20
2019-01-03T16:18:41.703Z,5.20
2019-01-03T16:21:10.582Z,5.20
2019-01-03T16:27:27.289Z,5.20
2019-01-03T16:29:56.214Z,5.20
2019-01-03T16:32:25.310Z,5.20
2019-01-03T16:34:54.419Z,5.10
2019-01-03T16:37:23.531Z,5.10
2019-01-03T16:40:12.998Z,5.10
2019-01-03T16:42:43.755Z,5.10
2019-01-03T16:45:13.399Z,5.10
2019-01-03T16:47:42.459Z,5.10
2019-01-03T16:50:16.579Z,5.10
2019-01-03T16:52:45.654Z,5.10
2019-01-03T16:55:14.812Z,5.10
2019-01-03T22:19:03.560Z,4.00
2019-01-03T22:21:32.428Z,4.00
2019-01-03T22:24:01.315Z,4.00
2019-01-03T22:26:30.248Z,4.00
2019-01-03T22:29:00.245Z,4.00
2019-01-03T22:31:30.088Z,4.00
2019-01-03T22:33:59.020Z,3.90
2019-01-03T22:36:27.824Z,3.90
2019-01-03T22:38:56.624Z,3.90
2019-01-03T22:41:25.436Z,3.90
2019-01-03T22:43:54.343Z,3.90
2019-01-03T22:46:23.217Z,4.00
2019-01-03T22:48:52.068Z,3.90
2019-01-03T22:51:20.983Z,3.90
2019-01-03T22:53:49.779Z,3.90
2019-01-03T22:56:18.596Z,3.90
2019-01-03T22:58:47.785Z,3.90
2019-01-03T23:01:16.964Z,3.90
2019-01-03T23:03:45.836Z,3.90
2019-01-03T23:06:14.743Z,3.90
2019-01-03T23:08:43.537Z,3.80
2019-01-03T23:11:12.524Z,3.90
2019-01-03T23:13:41.340Z,3.90
2019-01-03T23:16:10.260Z,3.90
2019-01-03T23:18:39.115Z,3.90
2019-01-03T23:21:07.998Z,3.90
2019-01-03T23:23:36.840Z,3.90
2019-01-03T23:26:08.764Z,3.90
2019-01-03T23:28:37.959Z,3.90
2019-01-03T23:31:06.904Z,3.90
2019-01-03T23:33:35.736Z,3.90
2019-01-03T23:36:04.596Z,3.90
2019-01-03T23:38:33.482Z,3.90
2019-01-03T23:41:02.489Z,3.80
2019-01-03T23:43:31.528Z,3.90
2019-01-03T23:46:00.359Z,3.90
2019-01-03T23:48:29.640Z,3.90
2019-01-03T23:50:58.432Z,3.90
2019-01-03T23:53:27.326Z,3.90
2019-01-03T23:55:58.502Z,3.90
2019-01-03T23:58:27.500Z,4.00
